sensor_id;sensor_type;location;lat;lon;timestamp;P1;durP1;ratioP1;P2;durP2;ratioP2
13432;SDS011;6789;47.678;9.158;2022-08-11T00:01:15;1.50;;;1.40;;
13432;SDS011;6789;47.678;9.158;2022-08-11T00:06:14;4.07;;;1.17;;
13432;SDS011;6789;47.678;9.158;2022-08-11T00:11:30;2.40;;;1.30;;
13432;SDS011;6789;47.678;9.158;2022-08-11T00:16:53;1.52;;;1.30;;
13432;SDS011;6789;47.678;9.158;2022-08-11T00:21:53;5.05;;;1.42;;
13432;SDS011;6789;47.678;9.158;2022-08-11T00:26:56;1.30;;;1.10;;
13432;SDS011;6789;47.678;9.158;2022-08-11T00:31:53;1.58;;;1.20;;
13432;SDS011;6789;47.678;9.158;2022-08-11T00:36:52;1.40;;;1.30;;
13432;SDS011;6789;47.678;9.158;2022-08-11T00:53:48;2.03;;;1.30;;
13432;SDS011;6789;47.678;9.158;2022-08-11T00:59:34;1.23;;;1.13;;
13432;SDS011;6789;47.678;9.158;2022-08-11T01:32:30;1.40;;;1.30;;
13432;SDS011;6789;47.678;9.158;2022-08-11T01:49:11;2.03;;;1.63;;
13432;SDS011;6789;47.678;9.158;2022-08-11T01:55:04;2.70;;;1.17;;
13432;SDS011;6789;47.678;9.158;2022-08-11T02:00:29;2.05;;;1.38;;
13432;SDS011;6789;47.678;9.158;2022-08-11T02:10:54;2.22;;;1.80;;
13432;SDS011;6789;47.678;9.158;2022-08-11T02:16:21;3.33;;;1.80;;
13432;SDS011;6789;47.678;9.158;2022-08-11T02:21:48;3.67;;;1.67;;
13432;SDS011;6789;47.678;9.158;2022-08-11T02:27:22;3.05;;;1.75;;
13432;SDS011;6789;47.678;9.158;2022-08-11T02:44:33;3.67;;;1.70;;
13432;SDS011;6789;47.678;9.158;2022-08-11T02:50:14;2.80;;;1.48;;
13432;SDS011;6789;47.678;9.158;2022-08-11T03:00:29;1.80;;;1.60;;
13432;SDS011;6789;47.678;9.158;2022-08-11T03:05:53;2.80;;;1.45;;
13432;SDS011;6789;47.678;9.158;2022-08-11T03:27:11;1.83;;;1.60;;
13432;SDS011;6789;47.678;9.158;2022-08-11T03:39:00;2.30;;;1.50;;
13432;SDS011;6789;47.678;9.158;2022-08-11T03:55:07;2.17;;;1.63;;
13432;SDS011;6789;47.678;9.158;2022-08-11T04:05:48;2.20;;;1.60;;
13432;SDS011;6789;47.678;9.158;2022-08-11T04:57:08;4.80;;;2.20;;
13432;SDS011;6789;47.678;9.158;2022-08-11T05:14:51;2.38;;;1.98;;
13432;SDS011;6789;47.678;9.158;2022-08-11T05:20:07;2.20;;;2.00;;
13432;SDS011;6789;47.678;9.158;2022-08-11T05:25:29;3.10;;;1.90;;
13432;SDS011;6789;47.678;9.158;2022-08-11T05:31:04;3.53;;;1.70;;
13432;SDS011;6789;47.678;9.158;2022-08-11T05:36:28;2.30;;;2.08;;
13432;SDS011;6789;47.678;9.158;2022-08-11T05:41:35;4.72;;;1.50;;
13432;SDS011;6789;47.678;9.158;2022-08-11T05:46:46;1.95;;;1.77;;
13432;SDS011;6789;47.678;9.158;2022-08-11T05:51:59;3.03;;;1.98;;
13432;SDS011;6789;47.678;9.158;2022-08-11T05:57:31;2.20;;;2.00;;
13432;SDS011;6789;47.678;9.158;2022-08-11T06:02:49;2.17;;;1.98;;
13432;SDS011;6789;47.678;9.158;2022-08-11T06:07:56;1.88;;;1.77;;
13432;SDS011;6789;47.678;9.158;2022-08-11T06:12:51;2.63;;;2.00;;
13432;SDS011;6789;47.678;9.158;2022-08-11T06:17:53;1.95;;;1.80;;
13432;SDS011;6789;47.678;9.158;2022-08-11T06:22:54;2.55;;;2.00;;
13432;SDS011;6789;47.678;9.158;2022-08-11T06:27:56;3.28;;;1.98;;
13432;SDS011;6789;47.678;9.158;2022-08-11T06:33:05;1.90;;;1.80;;
13432;SDS011;6789;47.678;9.158;2022-08-11T06:49:19;2.58;;;1.88;;
13432;SDS011;6789;47.678;9.158;2022-08-11T06:54:50;3.00;;;2.00;;
13432;SDS011;6789;47.678;9.158;2022-08-11T06:59:56;2.70;;;1.95;;
13432;SDS011;6789;47.678;9.158;2022-08-11T07:16:25;2.22;;;2.00;;
13432;SDS011;6789;47.678;9.158;2022-08-11T07:21:28;3.10;;;1.95;;
13432;SDS011;6789;47.678;9.158;2022-08-11T07:26:53;1.80;;;1.70;;
13432;SDS011;6789;47.678;9.158;2022-08-11T07:32:12;2.80;;;2.10;;
13432;SDS011;6789;47.678;9.158;2022-08-11T07:37:33;6.47;;;2.38;;
13432;SDS011;6789;47.678;9.158;2022-08-11T07:42:42;2.22;;;2.03;;
13432;SDS011;6789;47.678;9.158;2022-08-11T07:47:41;2.38;;;2.00;;
13432;SDS011;6789;47.678;9.158;2022-08-11T07:52:57;3.50;;;2.40;;
13432;SDS011;6789;47.678;9.158;2022-08-11T07:57:57;3.05;;;2.17;;
13432;SDS011;6789;47.678;9.158;2022-08-11T08:03:12;4.60;;;2.40;;
13432;SDS011;6789;47.678;9.158;2022-08-11T08:08:39;4.43;;;2.60;;
13432;SDS011;6789;47.678;9.158;2022-08-11T08:13:53;4.72;;;2.15;;
13432;SDS011;6789;47.678;9.158;2022-08-11T08:19:12;2.33;;;2.00;;
13432;SDS011;6789;47.678;9.158;2022-08-11T08:24:23;2.70;;;2.05;;
13432;SDS011;6789;47.678;9.158;2022-08-11T08:29:15;3.90;;;1.70;;
13432;SDS011;6789;47.678;9.158;2022-08-11T08:34:31;2.90;;;2.20;;
13432;SDS011;6789;47.678;9.158;2022-08-11T08:39:37;2.70;;;2.08;;
13432;SDS011;6789;47.678;9.158;2022-08-11T08:44:31;2.17;;;1.98;;
13432;SDS011;6789;47.678;9.158;2022-08-11T08:49:33;2.97;;;2.03;;
13432;SDS011;6789;47.678;9.158;2022-08-11T08:54:43;2.20;;;2.00;;
13432;SDS011;6789;47.678;9.158;2022-08-11T08:59:43;2.88;;;2.10;;
13432;SDS011;6789;47.678;9.158;2022-08-11T09:04:53;3.17;;;2.00;;
13432;SDS011;6789;47.678;9.158;2022-08-11T09:09:47;2.42;;;2.22;;
13432;SDS011;6789;47.678;9.158;2022-08-11T09:14:42;2.33;;;2.13;;
13432;SDS011;6789;47.678;9.158;2022-08-11T09:25:16;1.95;;;1.83;;
13432;SDS011;6789;47.678;9.158;2022-08-11T09:30:30;6.00;;;2.30;;
13432;SDS011;6789;47.678;9.158;2022-08-11T09:35:37;2.05;;;1.85;;
13432;SDS011;6789;47.678;9.158;2022-08-11T09:40:53;2.30;;;1.88;;
13432;SDS011;6789;47.678;9.158;2022-08-11T09:46:01;3.88;;;2.15;;
13432;SDS011;6789;47.678;9.158;2022-08-11T09:51:11;2.97;;;2.30;;
13432;SDS011;6789;47.678;9.158;2022-08-11T09:56:31;3.45;;;2.28;;
13432;SDS011;6789;47.678;9.158;2022-08-11T10:01:59;1.95;;;1.85;;
13432;SDS011;6789;47.678;9.158;2022-08-11T10:07:01;2.53;;;2.20;;
13432;SDS011;6789;47.678;9.158;2022-08-11T10:12:20;2.22;;;2.03;;
13432;SDS011;6789;47.678;9.158;2022-08-11T10:17:45;2.63;;;2.10;;
13432;SDS011;6789;47.678;9.158;2022-08-11T10:23:11;2.50;;;2.30;;
13432;SDS011;6789;47.678;9.158;2022-08-11T10:28:37;2.50;;;2.30;;
13432;SDS011;6789;47.678;9.158;2022-08-11T10:34:15;2.55;;;2.35;;
13432;SDS011;6789;47.678;9.158;2022-08-11T10:39:43;2.10;;;2.00;;
13432;SDS011;6789;47.678;9.158;2022-08-11T10:44:52;2.33;;;2.13;;
13432;SDS011;6789;47.678;9.158;2022-08-11T10:50:10;2.72;;;2.20;;
13432;SDS011;6789;47.678;9.158;2022-08-11T10:56:09;2.83;;;2.28;;
13432;SDS011;6789;47.678;9.158;2022-08-11T11:01:40;3.45;;;2.25;;
13432;SDS011;6789;47.678;9.158;2022-08-11T11:12:00;6.72;;;2.50;;
13432;SDS011;6789;47.678;9.158;2022-08-11T11:17:56;4.47;;;2.53;;
13432;SDS011;6789;47.678;9.158;2022-08-11T11:35:47;5.68;;;2.25;;
13432;SDS011;6789;47.678;9.158;2022-08-11T11:41:22;3.47;;;1.98;;
13432;SDS011;6789;47.678;9.158;2022-08-11T11:46:45;3.17;;;2.30;;
13432;SDS011;6789;47.678;9.158;2022-08-11T11:52:50;3.75;;;2.28;;
13432;SDS011;6789;47.678;9.158;2022-08-11T11:58:07;4.82;;;2.30;;
13432;SDS011;6789;47.678;9.158;2022-08-11T12:03:48;2.58;;;2.22;;
13432;SDS011;6789;47.678;9.158;2022-08-11T12:09:46;2.80;;;2.38;;
13432;SDS011;6789;47.678;9.158;2022-08-11T12:15:06;2.38;;;2.17;;
13432;SDS011;6789;47.678;9.158;2022-08-11T12:20:34;2.70;;;2.10;;
13432;SDS011;6789;47.678;9.158;2022-08-11T12:25:56;2.10;;;2.00;;
13432;SDS011;6789;47.678;9.158;2022-08-11T12:31:27;2.65;;;2.25;;
13432;SDS011;6789;47.678;9.158;2022-08-11T12:36:48;4.55;;;1.95;;
13432;SDS011;6789;47.678;9.158;2022-08-11T12:42:49;2.75;;;2.50;;
13432;SDS011;6789;47.678;9.158;2022-08-11T12:48:32;3.38;;;2.20;;
13432;SDS011;6789;47.678;9.158;2022-08-11T12:54:26;2.58;;;2.30;;
13432;SDS011;6789;47.678;9.158;2022-08-11T13:00:05;2.58;;;2.28;;
13432;SDS011;6789;47.678;9.158;2022-08-11T13:10:38;2.95;;;2.10;;
13432;SDS011;6789;47.678;9.158;2022-08-11T13:16:06;2.25;;;2.05;;
13432;SDS011;6789;47.678;9.158;2022-08-11T13:21:19;2.45;;;2.13;;
13432;SDS011;6789;47.678;9.158;2022-08-11T13:26:32;3.15;;;2.28;;
13432;SDS011;6789;47.678;9.158;2022-08-11T13:31:41;2.30;;;2.10;;
13432;SDS011;6789;47.678;9.158;2022-08-11T13:36:53;2.72;;;2.13;;
13432;SDS011;6789;47.678;9.158;2022-08-11T13:42:02;2.38;;;2.17;;
13432;SDS011;6789;47.678;9.158;2022-08-11T13:47:12;2.25;;;2.05;;
13432;SDS011;6789;47.678;9.158;2022-08-11T13:52:20;2.22;;;2.03;;
13432;SDS011;6789;47.678;9.158;2022-08-11T13:57:14;2.10;;;1.90;;
13432;SDS011;6789;47.678;9.158;2022-08-11T14:02:47;2.20;;;2.00;;
13432;SDS011;6789;47.678;9.158;2022-08-11T14:08:00;2.28;;;2.00;;
13432;SDS011;6789;47.678;9.158;2022-08-11T14:13:15;3.40;;;2.00;;
13432;SDS011;6789;47.678;9.158;2022-08-11T14:18:49;3.35;;;2.40;;
13432;SDS011;6789;47.678;9.158;2022-08-11T14:24:02;2.25;;;2.05;;
13432;SDS011;6789;47.678;9.158;2022-08-11T14:29:22;2.83;;;2.00;;
13432;SDS011;6789;47.678;9.158;2022-08-11T14:35:01;3.15;;;2.10;;
13432;SDS011;6789;47.678;9.158;2022-08-11T14:40:08;4.68;;;2.40;;
13432;SDS011;6789;47.678;9.158;2022-08-11T14:45:37;5.18;;;2.28;;
13432;SDS011;6789;47.678;9.158;2022-08-11T14:51:14;4.20;;;2.13;;
13432;SDS011;6789;47.678;9.158;2022-08-11T14:56:32;6.15;;;2.03;;
13432;SDS011;6789;47.678;9.158;2022-08-11T15:01:48;2.70;;;2.30;;
13432;SDS011;6789;47.678;9.158;2022-08-11T15:07:14;2.40;;;2.20;;
13432;SDS011;6789;47.678;9.158;2022-08-11T15:18:12;2.42;;;2.22;;
13432;SDS011;6789;47.678;9.158;2022-08-11T15:23:21;3.10;;;2.28;;
13432;SDS011;6789;47.678;9.158;2022-08-11T15:29:05;2.90;;;2.20;;
13432;SDS011;6789;47.678;9.158;2022-08-11T15:34:33;2.30;;;2.10;;
13432;SDS011;6789;47.678;9.158;2022-08-11T15:46:06;2.42;;;2.22;;
13432;SDS011;6789;47.678;9.158;2022-08-11T15:51:36;2.42;;;2.22;;
13432;SDS011;6789;47.678;9.158;2022-08-11T15:56:53;2.33;;;2.13;;
13432;SDS011;6789;47.678;9.158;2022-08-11T16:02:12;4.07;;;1.98;;
13432;SDS011;6789;47.678;9.158;2022-08-11T16:07:44;2.35;;;2.15;;
13432;SDS011;6789;47.678;9.158;2022-08-11T16:13:00;2.05;;;1.92;;
13432;SDS011;6789;47.678;9.158;2022-08-11T16:18:10;2.50;;;2.30;;
13432;SDS011;6789;47.678;9.158;2022-08-11T16:23:22;3.17;;;2.00;;
13432;SDS011;6789;47.678;9.158;2022-08-11T16:28:32;2.25;;;2.10;;
13432;SDS011;6789;47.678;9.158;2022-08-11T16:33:41;2.45;;;2.25;;
13432;SDS011;6789;47.678;9.158;2022-08-11T16:38:49;3.40;;;2.30;;
13432;SDS011;6789;47.678;9.158;2022-08-11T16:44:03;3.40;;;2.08;;
13432;SDS011;6789;47.678;9.158;2022-08-11T16:49:35;2.20;;;2.00;;
13432;SDS011;6789;47.678;9.158;2022-08-11T16:54:47;2.58;;;2.38;;
13432;SDS011;6789;47.678;9.158;2022-08-11T16:59:53;1.98;;;1.83;;
13432;SDS011;6789;47.678;9.158;2022-08-11T17:05:12;2.33;;;2.13;;
13432;SDS011;6789;47.678;9.158;2022-08-11T17:10:49;2.17;;;1.98;;
13432;SDS011;6789;47.678;9.158;2022-08-11T17:16:25;2.20;;;2.10;;
13432;SDS011;6789;47.678;9.158;2022-08-11T17:21:42;2.40;;;2.20;;
13432;SDS011;6789;47.678;9.158;2022-08-11T17:27:21;4.80;;;2.33;;
13432;SDS011;6789;47.678;9.158;2022-08-11T17:32:35;2.50;;;2.30;;
13432;SDS011;6789;47.678;9.158;2022-08-11T17:38:24;3.88;;;2.30;;
13432;SDS011;6789;47.678;9.158;2022-08-11T17:43:34;2.58;;;2.38;;
13432;SDS011;6789;47.678;9.158;2022-08-11T17:49:01;2.40;;;2.05;;
13432;SDS011;6789;47.678;9.158;2022-08-11T17:54:14;3.45;;;2.08;;
13432;SDS011;6789;47.678;9.158;2022-08-11T17:59:41;1.98;;;1.85;;
13432;SDS011;6789;47.678;9.158;2022-08-11T18:05:02;2.35;;;2.15;;
13432;SDS011;6789;47.678;9.158;2022-08-11T18:10:03;4.35;;;2.00;;
13432;SDS011;6789;47.678;9.158;2022-08-11T18:15:30;1.90;;;1.70;;
13432;SDS011;6789;47.678;9.158;2022-08-11T18:20:56;3.85;;;2.13;;
13432;SDS011;6789;47.678;9.158;2022-08-11T18:26:23;2.17;;;1.70;;
13432;SDS011;6789;47.678;9.158;2022-08-11T18:31:54;3.67;;;2.10;;
13432;SDS011;6789;47.678;9.158;2022-08-11T18:37:29;1.83;;;1.73;;
13432;SDS011;6789;47.678;9.158;2022-08-11T18:42:59;2.22;;;2.03;;
13432;SDS011;6789;47.678;9.158;2022-08-11T18:48:29;3.22;;;2.00;;
13432;SDS011;6789;47.678;9.158;2022-08-11T18:53:59;2.47;;;2.10;;
13432;SDS011;6789;47.678;9.158;2022-08-11T18:59:32;3.47;;;1.90;;
13432;SDS011;6789;47.678;9.158;2022-08-11T19:05:02;2.20;;;2.05;;
13432;SDS011;6789;47.678;9.158;2022-08-11T19:10:29;1.90;;;1.80;;
13432;SDS011;6789;47.678;9.158;2022-08-11T19:15:55;2.47;;;2.00;;
13432;SDS011;6789;47.678;9.158;2022-08-11T19:21:20;2.38;;;2.17;;
13432;SDS011;6789;47.678;9.158;2022-08-11T19:26:46;5.00;;;2.00;;
13432;SDS011;6789;47.678;9.158;2022-08-11T19:32:15;2.17;;;1.90;;
13432;SDS011;6789;47.678;9.158;2022-08-11T19:37:42;3.85;;;2.58;;
13432;SDS011;6789;47.678;9.158;2022-08-11T19:43:09;3.40;;;1.83;;
13432;SDS011;6789;47.678;9.158;2022-08-11T19:48:37;2.28;;;2.08;;
13432;SDS011;6789;47.678;9.158;2022-08-11T19:54:06;4.22;;;2.28;;
13432;SDS011;6789;47.678;9.158;2022-08-11T19:59:32;1.80;;;1.70;;
13432;SDS011;6789;47.678;9.158;2022-08-11T20:04:57;1.88;;;1.77;;
13432;SDS011;6789;47.678;9.158;2022-08-11T20:10:22;2.38;;;1.90;;
13432;SDS011;6789;47.678;9.158;2022-08-11T20:15:52;2.67;;;1.90;;
13432;SDS011;6789;47.678;9.158;2022-08-11T20:21:20;4.80;;;2.10;;
13432;SDS011;6789;47.678;9.158;2022-08-11T20:26:48;3.17;;;1.95;;
13432;SDS011;6789;47.678;9.158;2022-08-11T20:32:16;3.08;;;1.88;;
13432;SDS011;6789;47.678;9.158;2022-08-11T20:37:41;2.72;;;1.90;;
13432;SDS011;6789;47.678;9.158;2022-08-11T20:43:16;4.18;;;2.10;;
13432;SDS011;6789;47.678;9.158;2022-08-11T20:48:45;2.10;;;1.70;;
13432;SDS011;6789;47.678;9.158;2022-08-11T20:54:14;4.50;;;1.92;;
13432;SDS011;6789;47.678;9.158;2022-08-11T20:59:42;2.40;;;1.80;;
13432;SDS011;6789;47.678;9.158;2022-08-11T21:05:09;2.30;;;1.80;;
13432;SDS011;6789;47.678;9.158;2022-08-11T21:10:35;2.08;;;1.65;;
13432;SDS011;6789;47.678;9.158;2022-08-11T21:16:07;2.53;;;1.90;;
13432;SDS011;6789;47.678;9.158;2022-08-11T21:21:42;2.03;;;1.60;;
13432;SDS011;6789;47.678;9.158;2022-08-11T21:27:12;2.63;;;1.98;;
13432;SDS011;6789;47.678;9.158;2022-08-11T21:32:32;2.10;;;1.77;;
13432;SDS011;6789;47.678;9.158;2022-08-11T21:37:59;2.30;;;2.10;;
13432;SDS011;6789;47.678;9.158;2022-08-11T21:43:25;2.35;;;1.70;;
13432;SDS011;6789;47.678;9.158;2022-08-11T21:48:55;3.75;;;1.70;;
13432;SDS011;6789;47.678;9.158;2022-08-11T21:54:21;1.92;;;1.80;;
13432;SDS011;6789;47.678;9.158;2022-08-11T21:59:53;2.90;;;1.90;;
13432;SDS011;6789;47.678;9.158;2022-08-11T22:05:20;2.60;;;1.70;;
13432;SDS011;6789;47.678;9.158;2022-08-11T22:10:47;3.67;;;1.70;;
13432;SDS011;6789;47.678;9.158;2022-08-11T22:16:12;2.58;;;1.70;;
13432;SDS011;6789;47.678;9.158;2022-08-11T22:21:38;2.75;;;1.90;;
13432;SDS011;6789;47.678;9.158;2022-08-11T22:27:07;3.72;;;1.80;;
13432;SDS011;6789;47.678;9.158;2022-08-11T22:32:33;2.08;;;1.60;;
13432;SDS011;6789;47.678;9.158;2022-08-11T22:38:01;2.85;;;1.73;;
13432;SDS011;6789;47.678;9.158;2022-08-11T22:43:26;3.25;;;1.83;;
13432;SDS011;6789;47.678;9.158;2022-08-11T22:48:52;3.30;;;1.63;;
13432;SDS011;6789;47.678;9.158;2022-08-11T22:54:19;2.45;;;1.90;;
13432;SDS011;6789;47.678;9.158;2022-08-11T22:59:44;2.50;;;1.80;;
13432;SDS011;6789;47.678;9.158;2022-08-11T23:05:09;1.98;;;1.85;;
13432;SDS011;6789;47.678;9.158;2022-08-11T23:10:39;2.00;;;1.70;;
13432;SDS011;6789;47.678;9.158;2022-08-11T23:16:05;3.22;;;1.67;;
13432;SDS011;6789;47.678;9.158;2022-08-11T23:21:30;2.35;;;2.00;;
13432;SDS011;6789;47.678;9.158;2022-08-11T23:26:45;2.60;;;1.80;;
13432;SDS011;6789;47.678;9.158;2022-08-11T23:32:11;3.85;;;1.92;;
13432;SDS011;6789;47.678;9.158;2022-08-11T23:37:35;3.90;;;1.70;;
13432;SDS011;6789;47.678;9.158;2022-08-11T23:43:00;2.28;;;1.90;;
13432;SDS011;6789;47.678;9.158;2022-08-11T23:48:26;3.05;;;2.03;;
13432;SDS011;6789;47.678;9.158;2022-08-11T23:53:53;1.65;;;1.52;;
13432;SDS011;6789;47.678;9.158;2022-08-11T23:59:20;2.40;;;1.70;;
